sensor_id;sensor_type;location;lat;lon;timestamp;temperature;humidity
1644;DHT22;46825;51.99869940;8.49421771;2022-10-26T00:00:19;10.70;99.90
1644;DHT22;46825;51.99869940;8.49421771;2022-10-26T00:04:23;10.50;99.90
1644;DHT22;46825;51.99869940;8.49421771;2022-10-26T00:06:25;10.60;99.90
1644;DHT22;46825;51.99869940;8.49421771;2022-10-26T00:08:29;10.60;99.90
1644;DHT22;46825;51.99869940;8.49421771;2022-10-26T00:13:36;10.50;99.90
1644;DHT22;46825;51.99869940;8.49421771;2022-10-26T00:14:37;10.50;99.90
1644;DHT22;46825;51.99869940;8.49421771;2022-10-26T00:15:41;10.60;99.90
1644;DHT22;46825;51.99869940;8.49421771;2022-10-26T00:18:44;10.50;99.90
1644;DHT22;46825;51.99869940;8.49421771;2022-10-26T00:20:46;10.60;99.90
1644;DHT22;46825;51.99869940;8.49421771;2022-10-26T00:23:48;10.50;99.90
1644;DHT22;46825;51.99869940;8.49421771;2022-10-26T00:34:05;10.50;99.90
1644;DHT22;46825;51.99869940;8.49421771;2022-10-26T00:38:10;10.50;99.90
1644;DHT22;46825;51.99869940;8.49421771;2022-10-26T00:41:15;10.30;99.90
1644;DHT22;46825;51.99869940;8.49421771;2022-10-26T00:45:47;10.50;99.90
1644;DHT22;46825;51.99869940;8.49421771;2022-10-26T00:52:06;10.50;99.90
1644;DHT22;46825;51.99869940;8.49421771;2022-10-26T01:02:25;10.60;99.90
1644;DHT22;46825;51.99869940;8.49421771;2022-10-26T01:03:25;10.70;99.90
1644;DHT22;46825;51.99869940;8.49421771;2022-10-26T01:06:31;10.70;99.90
1644;DHT22;46825;51.99869940;8.49421771;2022-10-26T01:10:39;10.60;99.90
1644;DHT22;46825;51.99869940;8.49421771;2022-10-26T01:11:40;10.60;99.90
1644;DHT22;46825;51.99869940;8.49421771;2022-10-26T01:29:01;10.60;99.90
1644;DHT22;46825;51.99869940;8.49421771;2022-10-26T01:34:42;10.50;99.90
1644;DHT22;46825;51.99869940;8.49421771;2022-10-26T01:37:14;10.40;99.90
1644;DHT22;46825;51.99869940;8.49421771;2022-10-26T01:40:39;10.50;99.90
1644;DHT22;46825;51.99869940;8.49421771;2022-10-26T01:41:47;10.50;99.90
1644;DHT22;46825;51.99869940;8.49421771;2022-10-26T01:42:50;10.50;99.90
1644;DHT22;46825;51.99869940;8.49421771;2022-10-26T01:44:02;10.50;99.90
1644;DHT22;46825;51.99869940;8.49421771;2022-10-26T01:45:06;10.50;99.90
1644;DHT22;46825;51.99869940;8.49421771;2022-10-26T01:46:08;10.50;99.90
1644;DHT22;46825;51.99869940;8.49421771;2022-10-26T01:47:12;10.50;99.90
1644;DHT22;46825;51.99869940;8.49421771;2022-10-26T01:48:17;10.50;99.90
1644;DHT22;46825;51.99869940;8.49421771;2022-10-26T01:49:21;10.50;99.90
1644;DHT22;46825;51.99869940;8.49421771;2022-10-26T01:50:23;10.50;99.90
1644;DHT22;46825;51.99869940;8.49421771;2022-10-26T01:51:25;10.50;99.90
1644;DHT22;46825;51.99869940;8.49421771;2022-10-26T01:53:27;10.40;99.90
1644;DHT22;46825;51.99869940;8.49421771;2022-10-26T01:55:51;10.50;99.90
1644;DHT22;46825;51.99869940;8.49421771;2022-10-26T01:56:55;10.40;99.90
1644;DHT22;46825;51.99869940;8.49421771;2022-10-26T02:03:51;10.40;99.90
1644;DHT22;46825;51.99869940;8.49421771;2022-10-26T02:06:21;10.30;99.90
1644;DHT22;46825;51.99869940;8.49421771;2022-10-26T02:11:23;10.40;99.90
1644;DHT22;46825;51.99869940;8.49421771;2022-10-26T02:14:19;10.30;99.90
1644;DHT22;46825;51.99869940;8.49421771;2022-10-26T02:15:10;10.30;99.90
1644;DHT22;46825;51.99869940;8.49421771;2022-10-26T02:16:23;10.40;99.90
1644;DHT22;46825;51.99869940;8.49421771;2022-10-26T02:19:46;10.30;99.90
1644;DHT22;46825;51.99869940;8.49421771;2022-10-26T02:20:50;10.40;99.90
1644;DHT22;46825;51.99869940;8.49421771;2022-10-26T02:21:57;10.40;99.90
1644;DHT22;46825;51.99869940;8.49421771;2022-10-26T02:23:03;10.40;99.90
1644;DHT22;46825;51.99869940;8.49421771;2022-10-26T02:24:06;10.40;99.90
1644;DHT22;46825;51.99869940;8.49421771;2022-10-26T02:25:11;10.30;99.90
1644;DHT22;46825;51.99869940;8.49421771;2022-10-26T02:26:17;10.30;99.90
1644;DHT22;46825;51.99869940;8.49421771;2022-10-26T02:27:25;10.30;99.90
1644;DHT22;46825;51.99869940;8.49421771;2022-10-26T02:28:31;10.30;99.90
1644;DHT22;46825;51.99869940;8.49421771;2022-10-26T02:29:34;10.30;99.90
1644;DHT22;46825;51.99869940;8.49421771;2022-10-26T02:31:38;10.40;99.90
1644;DHT22;46825;51.99869940;8.49421771;2022-10-26T02:32:45;10.40;99.90
1644;DHT22;46825;51.99869940;8.49421771;2022-10-26T02:33:48;10.40;99.90
1644;DHT22;46825;51.99869940;8.49421771;2022-10-26T02:34:50;10.40;99.90
1644;DHT22;46825;51.99869940;8.49421771;2022-10-26T02:35:53;10.40;99.90
1644;DHT22;46825;51.99869940;8.49421771;2022-10-26T02:36:57;10.40;99.90
1644;DHT22;46825;51.99869940;8.49421771;2022-10-26T02:38:01;10.50;99.90
1644;DHT22;46825;51.99869940;8.49421771;2022-10-26T02:39:05;10.50;99.90
1644;DHT22;46825;51.99869940;8.49421771;2022-10-26T02:40:10;10.60;99.90
1644;DHT22;46825;51.99869940;8.49421771;2022-10-26T02:41:13;10.70;99.90
1644;DHT22;46825;51.99869940;8.49421771;2022-10-26T02:42:14;10.70;99.90
1644;DHT22;46825;51.99869940;8.49421771;2022-10-26T02:43:16;10.80;99.90
1644;DHT22;46825;51.99869940;8.49421771;2022-10-26T02:44:26;10.80;99.90
1644;DHT22;46825;51.99869940;8.49421771;2022-10-26T02:45:42;10.80;99.90
1644;DHT22;46825;51.99869940;8.49421771;2022-10-26T02:46:44;10.80;99.90
1644;DHT22;46825;51.99869940;8.49421771;2022-10-26T02:47:44;10.80;99.90
1644;DHT22;46825;51.99869940;8.49421771;2022-10-26T02:48:45;10.90;99.90
1644;DHT22;46825;51.99869940;8.49421771;2022-10-26T02:50:59;10.90;99.90
1644;DHT22;46825;51.99869940;8.49421771;2022-10-26T02:52:09;10.80;99.90
1644;DHT22;46825;51.99869940;8.49421771;2022-10-26T02:53:18;10.80;99.90
1644;DHT22;46825;51.99869940;8.49421771;2022-10-26T02:55:48;10.80;99.90
1644;DHT22;46825;51.99869940;8.49421771;2022-10-26T02:57:04;10.70;99.90
1644;DHT22;46825;51.99869940;8.49421771;2022-10-26T02:59:14;10.80;99.90
1644;DHT22;46825;51.99869940;8.49421771;2022-10-26T03:01:17;10.80;99.90
1644;DHT22;46825;51.99869940;8.49421771;2022-10-26T03:02:19;10.90;99.90
1644;DHT22;46825;51.99869940;8.49421771;2022-10-26T03:04:28;10.90;99.90
1644;DHT22;46825;51.99869940;8.49421771;2022-10-26T03:05:31;10.90;99.90
1644;DHT22;46825;51.99869940;8.49421771;2022-10-26T03:06:32;10.90;99.90
1644;DHT22;46825;51.99869940;8.49421771;2022-10-26T03:07:32;10.90;99.90
1644;DHT22;46825;51.99869940;8.49421771;2022-10-26T03:08:33;10.90;99.90
1644;DHT22;46825;51.99869940;8.49421771;2022-10-26T03:09:33;10.90;99.90
1644;DHT22;46825;51.99869940;8.49421771;2022-10-26T03:10:39;10.90;99.90
1644;DHT22;46825;51.99869940;8.49421771;2022-10-26T03:11:40;11.00;99.90
1644;DHT22;46825;51.99869940;8.49421771;2022-10-26T03:12:41;10.90;99.90
1644;DHT22;46825;51.99869940;8.49421771;2022-10-26T03:13:41;11.00;99.90
1644;DHT22;46825;51.99869940;8.49421771;2022-10-26T03:16:44;11.10;99.90
1644;DHT22;46825;51.99869940;8.49421771;2022-10-26T03:17:45;11.00;99.90
1644;DHT22;46825;51.99869940;8.49421771;2022-10-26T03:18:45;11.10;99.90
1644;DHT22;46825;51.99869940;8.49421771;2022-10-26T03:19:46;11.00;99.90
1644;DHT22;46825;51.99869940;8.49421771;2022-10-26T03:21:47;10.90;99.90
1644;DHT22;46825;51.99869940;8.49421771;2022-10-26T03:22:48;10.90;99.90
1644;DHT22;46825;51.99869940;8.49421771;2022-10-26T03:24:49;10.90;99.90
1644;DHT22;46825;51.99869940;8.49421771;2022-10-26T03:25:50;10.80;99.90
1644;DHT22;46825;51.99869940;8.49421771;2022-10-26T03:27:59;10.90;99.90
1644;DHT22;46825;51.99869940;8.49421771;2022-10-26T03:29:00;10.90;99.90
1644;DHT22;46825;51.99869940;8.49421771;2022-10-26T03:30:01;11.00;99.90
1644;DHT22;46825;51.99869940;8.49421771;2022-10-26T03:31:01;11.00;99.90
1644;DHT22;46825;51.99869940;8.49421771;2022-10-26T03:32:02;11.00;99.90
1644;DHT22;46825;51.99869940;8.49421771;2022-10-26T03:33:02;11.00;99.90
1644;DHT22;46825;51.99869940;8.49421771;2022-10-26T03:34:03;11.00;99.90
1644;DHT22;46825;51.99869940;8.49421771;2022-10-26T03:35:04;11.00;99.90
1644;DHT22;46825;51.99869940;8.49421771;2022-10-26T03:36:05;11.00;99.90
1644;DHT22;46825;51.99869940;8.49421771;2022-10-26T03:37:05;11.00;99.90
1644;DHT22;46825;51.99869940;8.49421771;2022-10-26T03:38:06;11.00;99.90
1644;DHT22;46825;51.99869940;8.49421771;2022-10-26T03:40:08;11.10;99.90
1644;DHT22;46825;51.99869940;8.49421771;2022-10-26T03:42:10;11.20;99.90
1644;DHT22;46825;51.99869940;8.49421771;2022-10-26T03:45:13;11.10;99.90
1644;DHT22;46825;51.99869940;8.49421771;2022-10-26T03:46:13;11.10;99.90
1644;DHT22;46825;51.99869940;8.49421771;2022-10-26T03:48:15;11.10;99.90
1644;DHT22;46825;51.99869940;8.49421771;2022-10-26T03:50:19;11.00;99.90
1644;DHT22;46825;51.99869940;8.49421771;2022-10-26T03:51:20;10.90;99.90
1644;DHT22;46825;51.99869940;8.49421771;2022-10-26T03:52:21;10.90;99.90
1644;DHT22;46825;51.99869940;8.49421771;2022-10-26T03:53:23;10.80;99.90
1644;DHT22;46825;51.99869940;8.49421771;2022-10-26T03:54:24;10.80;99.90
1644;DHT22;46825;51.99869940;8.49421771;2022-10-26T03:55:24;10.80;99.90
1644;DHT22;46825;51.99869940;8.49421771;2022-10-26T03:56:25;10.70;99.90
1644;DHT22;46825;51.99869940;8.49421771;2022-10-26T03:57:26;10.60;99.90
1644;DHT22;46825;51.99869940;8.49421771;2022-10-26T03:58:26;10.70;99.90
1644;DHT22;46825;51.99869940;8.49421771;2022-10-26T04:00:28;10.50;99.90
1644;DHT22;46825;51.99869940;8.49421771;2022-10-26T04:01:28;10.40;99.90
1644;DHT22;46825;51.99869940;8.49421771;2022-10-26T04:03:30;10.50;99.90
1644;DHT22;46825;51.99869940;8.49421771;2022-10-26T04:04:30;10.50;99.90
1644;DHT22;46825;51.99869940;8.49421771;2022-10-26T04:05:31;10.50;99.90
1644;DHT22;46825;51.99869940;8.49421771;2022-10-26T04:06:32;10.50;99.90
1644;DHT22;46825;51.99869940;8.49421771;2022-10-26T04:07:32;10.60;99.90
1644;DHT22;46825;51.99869940;8.49421771;2022-10-26T04:09:34;10.60;99.90
1644;DHT22;46825;51.99869940;8.49421771;2022-10-26T04:11:35;10.70;99.90
1644;DHT22;46825;51.99869940;8.49421771;2022-10-26T04:12:37;10.70;99.90
1644;DHT22;46825;51.99869940;8.49421771;2022-10-26T04:13:37;10.80;99.90
1644;DHT22;46825;51.99869940;8.49421771;2022-10-26T04:14:38;10.90;99.90
1644;DHT22;46825;51.99869940;8.49421771;2022-10-26T04:15:38;10.90;99.90
1644;DHT22;46825;51.99869940;8.49421771;2022-10-26T04:16:39;10.90;99.90
1644;DHT22;46825;51.99869940;8.49421771;2022-10-26T04:17:40;11.00;99.90
1644;DHT22;46825;51.99869940;8.49421771;2022-10-26T04:19:41;11.10;99.90
1644;DHT22;46825;51.99869940;8.49421771;2022-10-26T04:21:43;11.20;99.90
1644;DHT22;46825;51.99869940;8.49421771;2022-10-26T04:22:43;11.20;99.90
1644;DHT22;46825;51.99869940;8.49421771;2022-10-26T04:23:44;11.30;99.90
1644;DHT22;46825;51.99869940;8.49421771;2022-10-26T04:25:46;11.20;99.90
1644;DHT22;46825;51.99869940;8.49421771;2022-10-26T04:26:46;11.10;99.90
1644;DHT22;46825;51.99869940;8.49421771;2022-10-26T04:27:47;11.20;99.90
1644;DHT22;46825;51.99869940;8.49421771;2022-10-26T04:28:47;11.10;99.90
1644;DHT22;46825;51.99869940;8.49421771;2022-10-26T04:29:48;11.00;99.90
1644;DHT22;46825;51.99869940;8.49421771;2022-10-26T04:30:48;11.10;99.90
1644;DHT22;46825;51.99869940;8.49421771;2022-10-26T04:31:49;11.00;99.90
1644;DHT22;46825;51.99869940;8.49421771;2022-10-26T04:32:49;11.00;99.90
1644;DHT22;46825;51.99869940;8.49421771;2022-10-26T04:33:50;11.00;99.90
1644;DHT22;46825;51.99869940;8.49421771;2022-10-26T04:34:51;11.00;99.90
1644;DHT22;46825;51.99869940;8.49421771;2022-10-26T04:35:58;11.00;99.90
1644;DHT22;46825;51.99869940;8.49421771;2022-10-26T04:37:00;11.00;99.90
1644;DHT22;46825;51.99869940;8.49421771;2022-10-26T04:38:02;10.90;99.90
1644;DHT22;46825;51.99869940;8.49421771;2022-10-26T04:39:03;10.90;99.90
1644;DHT22;46825;51.99869940;8.49421771;2022-10-26T04:40:04;10.80;99.90
1644;DHT22;46825;51.99869940;8.49421771;2022-10-26T04:41:05;10.80;99.90
1644;DHT22;46825;51.99869940;8.49421771;2022-10-26T04:43:06;10.70;99.90
1644;DHT22;46825;51.99869940;8.49421771;2022-10-26T04:44:07;10.70;99.90
1644;DHT22;46825;51.99869940;8.49421771;2022-10-26T04:46:10;10.70;99.90
1644;DHT22;46825;51.99869940;8.49421771;2022-10-26T04:48:14;10.60;99.90
1644;DHT22;46825;51.99869940;8.49421771;2022-10-26T04:49:14;10.60;99.90
1644;DHT22;46825;51.99869940;8.49421771;2022-10-26T04:50:15;10.60;99.90
1644;DHT22;46825;51.99869940;8.49421771;2022-10-26T04:51:16;10.60;99.90
1644;DHT22;46825;51.99869940;8.49421771;2022-10-26T04:52:16;10.60;99.90
1644;DHT22;46825;51.99869940;8.49421771;2022-10-26T04:53:17;10.60;99.90
1644;DHT22;46825;51.99869940;8.49421771;2022-10-26T04:54:17;10.60;99.90
1644;DHT22;46825;51.99869940;8.49421771;2022-10-26T04:55:18;10.60;99.90
1644;DHT22;46825;51.99869940;8.49421771;2022-10-26T04:56:18;10.60;99.90
1644;DHT22;46825;51.99869940;8.49421771;2022-10-26T04:57:21;10.60;99.90
1644;DHT22;46825;51.99869940;8.49421771;2022-10-26T04:58:22;10.70;99.90
1644;DHT22;46825;51.99869940;8.49421771;2022-10-26T05:00:23;10.70;99.90
1644;DHT22;46825;51.99869940;8.49421771;2022-10-26T05:01:24;10.80;99.90
1644;DHT22;46825;51.99869940;8.49421771;2022-10-26T05:02:27;10.70;99.90
1644;DHT22;46825;51.99869940;8.49421771;2022-10-26T05:03:28;10.70;99.90
1644;DHT22;46825;51.99869940;8.49421771;2022-10-26T05:04:29;10.70;99.90
1644;DHT22;46825;51.99869940;8.49421771;2022-10-26T05:05:31;10.70;99.90
1644;DHT22;46825;51.99869940;8.49421771;2022-10-26T05:07:33;10.70;99.90
1644;DHT22;46825;51.99869940;8.49421771;2022-10-26T05:08:33;10.60;99.90
1644;DHT22;46825;51.99869940;8.49421771;2022-10-26T05:09:34;10.60;99.90
1644;DHT22;46825;51.99869940;8.49421771;2022-10-26T05:11:36;10.60;99.90
1644;DHT22;46825;51.99869940;8.49421771;2022-10-26T05:12:36;10.60;99.90
1644;DHT22;46825;51.99869940;8.49421771;2022-10-26T05:13:37;10.60;99.90
1644;DHT22;46825;51.99869940;8.49421771;2022-10-26T05:14:37;10.60;99.90
1644;DHT22;46825;51.99869940;8.49421771;2022-10-26T05:15:38;10.60;99.90
1644;DHT22;46825;51.99869940;8.49421771;2022-10-26T05:16:38;10.60;99.90
1644;DHT22;46825;51.99869940;8.49421771;2022-10-26T05:17:39;10.50;99.90
1644;DHT22;46825;51.99869940;8.49421771;2022-10-26T05:18:39;10.60;99.90
1644;DHT22;46825;51.99869940;8.49421771;2022-10-26T05:19:40;10.60;99.90
1644;DHT22;46825;51.99869940;8.49421771;2022-10-26T05:20:41;10.40;99.90
1644;DHT22;46825;51.99869940;8.49421771;2022-10-26T05:21:41;10.50;99.90
1644;DHT22;46825;51.99869940;8.49421771;2022-10-26T05:22:42;10.50;99.90
1644;DHT22;46825;51.99869940;8.49421771;2022-10-26T05:23:42;10.50;99.90
1644;DHT22;46825;51.99869940;8.49421771;2022-10-26T05:24:43;10.40;99.90
1644;DHT22;46825;51.99869940;8.49421771;2022-10-26T05:25:44;10.50;99.90
1644;DHT22;46825;51.99869940;8.49421771;2022-10-26T05:26:44;10.60;99.90
1644;DHT22;46825;51.99869940;8.49421771;2022-10-26T05:28:46;10.50;99.90
1644;DHT22;46825;51.99869940;8.49421771;2022-10-26T05:29:47;10.60;99.90
1644;DHT22;46825;51.99869940;8.49421771;2022-10-26T05:30:48;10.60;99.90
1644;DHT22;46825;51.99869940;8.49421771;2022-10-26T05:31:48;10.50;99.90
1644;DHT22;46825;51.99869940;8.49421771;2022-10-26T05:32:59;10.50;99.90
1644;DHT22;46825;51.99869940;8.49421771;2022-10-26T05:35:01;10.60;99.90
1644;DHT22;46825;51.99869940;8.49421771;2022-10-26T05:37:02;10.50;99.90
1644;DHT22;46825;51.99869940;8.49421771;2022-10-26T05:38:11;10.50;99.90
1644;DHT22;46825;51.99869940;8.49421771;2022-10-26T05:39:12;10.50;99.90
1644;DHT22;46825;51.99869940;8.49421771;2022-10-26T05:40:13;10.60;99.90
1644;DHT22;46825;51.99869940;8.49421771;2022-10-26T05:42:15;10.60;99.90
1644;DHT22;46825;51.99869940;8.49421771;2022-10-26T05:43:17;10.60;99.90
1644;DHT22;46825;51.99869940;8.49421771;2022-10-26T05:44:18;10.50;99.90
1644;DHT22;46825;51.99869940;8.49421771;2022-10-26T05:46:19;10.60;99.90
1644;DHT22;46825;51.99869940;8.49421771;2022-10-26T05:47:20;10.60;99.90
1644;DHT22;46825;51.99869940;8.49421771;2022-10-26T05:48:20;10.60;99.90
1644;DHT22;46825;51.99869940;8.49421771;2022-10-26T05:50:22;10.60;99.90
1644;DHT22;46825;51.99869940;8.49421771;2022-10-26T05:51:23;10.70;99.90
1644;DHT22;46825;51.99869940;8.49421771;2022-10-26T05:52:23;10.70;99.90
1644;DHT22;46825;51.99869940;8.49421771;2022-10-26T05:53:24;10.70;99.90
1644;DHT22;46825;51.99869940;8.49421771;2022-10-26T05:54:24;10.80;99.90
1644;DHT22;46825;51.99869940;8.49421771;2022-10-26T05:55:25;10.70;99.90
1644;DHT22;46825;51.99869940;8.49421771;2022-10-26T05:56:40;10.70;99.90
1644;DHT22;46825;51.99869940;8.49421771;2022-10-26T05:57:41;10.70;99.90
1644;DHT22;46825;51.99869940;8.49421771;2022-10-26T05:58:42;10.60;99.90
1644;DHT22;46825;51.99869940;8.49421771;2022-10-26T05:59:43;10.70;99.90
1644;DHT22;46825;51.99869940;8.49421771;2022-10-26T06:05:24;10.70;99.90
1644;DHT22;46825;51.99869940;8.49421771;2022-10-26T06:06:28;10.80;99.90
1644;DHT22;46825;51.99869940;8.49421771;2022-10-26T06:08:30;10.70;99.90
1644;DHT22;46825;51.99869940;8.49421771;2022-10-26T06:09:33;10.70;99.90
1644;DHT22;46825;51.99869940;8.49421771;2022-10-26T06:10:34;10.70;99.90
1644;DHT22;46825;51.99869940;8.49421771;2022-10-26T06:11:35;10.70;99.90
1644;DHT22;46825;51.99869940;8.49421771;2022-10-26T06:12:36;10.70;99.90
1644;DHT22;46825;51.99869940;8.49421771;2022-10-26T06:13:37;10.80;99.90
1644;DHT22;46825;51.99869940;8.49421771;2022-10-26T06:14:38;10.80;99.90
1644;DHT22;46825;51.99869940;8.49421771;2022-10-26T06:20:23;10.90;99.90
1644;DHT22;46825;51.99869940;8.49421771;2022-10-26T06:26:09;11.00;99.90
1644;DHT22;46825;51.99869940;8.49421771;2022-10-26T06:30:02;11.10;99.90
1644;DHT22;46825;51.99869940;8.49421771;2022-10-26T06:32:04;11.10;99.90
1644;DHT22;46825;51.99869940;8.49421771;2022-10-26T06:36:41;11.10;99.90
1644;DHT22;46825;51.99869940;8.49421771;2022-10-26T06:37:43;11.10;99.90
1644;DHT22;46825;51.99869940;8.49421771;2022-10-26T06:38:46;11.10;99.90
1644;DHT22;46825;51.99869940;8.49421771;2022-10-26T06:39:48;11.10;99.90
1644;DHT22;46825;51.99869940;8.49421771;2022-10-26T06:41:53;11.20;99.90
1644;DHT22;46825;51.99869940;8.49421771;2022-10-26T06:42:54;11.20;99.90
1644;DHT22;46825;51.99869940;8.49421771;2022-10-26T06:43:55;11.20;99.90
1644;DHT22;46825;51.99869940;8.49421771;2022-10-26T06:44:56;11.20;99.90
1644;DHT22;46825;51.99869940;8.49421771;2022-10-26T06:47:17;11.10;99.90
1644;DHT22;46825;51.99869940;8.49421771;2022-10-26T06:50:38;11.30;99.90
1644;DHT22;46825;51.99869940;8.49421771;2022-10-26T06:51:58;11.30;99.90
1644;DHT22;46825;51.99869940;8.49421771;2022-10-26T06:53:15;11.30;99.90
1644;DHT22;46825;51.99869940;8.49421771;2022-10-26T06:54:28;11.40;99.90
1644;DHT22;46825;51.99869940;8.49421771;2022-10-26T06:55:39;11.30;99.90
1644;DHT22;46825;51.99869940;8.49421771;2022-10-26T06:56:42;11.40;99.90
1644;DHT22;46825;51.99869940;8.49421771;2022-10-26T06:59:50;11.40;99.90
1644;DHT22;46825;51.99869940;8.49421771;2022-10-26T07:02:55;11.50;99.90
1644;DHT22;46825;51.99869940;8.49421771;2022-10-26T07:03:57;11.50;99.90
1644;DHT22;46825;51.99869940;8.49421771;2022-10-26T07:04:57;11.50;99.90
1644;DHT22;46825;51.99869940;8.49421771;2022-10-26T07:05:58;11.40;99.90
1644;DHT22;46825;51.99869940;8.49421771;2022-10-26T07:08:00;11.40;99.90
1644;DHT22;46825;51.99869940;8.49421771;2022-10-26T07:09:00;11.50;99.90
1644;DHT22;46825;51.99869940;8.49421771;2022-10-26T07:10:01;11.50;99.90
1644;DHT22;46825;51.99869940;8.49421771;2022-10-26T07:11:02;11.50;99.90
1644;DHT22;46825;51.99869940;8.49421771;2022-10-26T07:12:03;11.50;99.90
1644;DHT22;46825;51.99869940;8.49421771;2022-10-26T07:13:08;11.50;99.90
1644;DHT22;46825;51.99869940;8.49421771;2022-10-26T07:14:09;11.50;99.90
1644;DHT22;46825;51.99869940;8.49421771;2022-10-26T07:15:10;11.60;99.90
1644;DHT22;46825;51.99869940;8.49421771;2022-10-26T07:16:11;11.60;99.90
1644;DHT22;46825;51.99869940;8.49421771;2022-10-26T07:17:11;11.70;99.90
1644;DHT22;46825;51.99869940;8.49421771;2022-10-26T07:18:12;11.60;99.90
1644;DHT22;46825;51.99869940;8.49421771;2022-10-26T07:20:15;11.70;99.90
1644;DHT22;46825;51.99869940;8.49421771;2022-10-26T07:21:16;11.80;99.90
1644;DHT22;46825;51.99869940;8.49421771;2022-10-26T07:24:19;11.80;99.90
1644;DHT22;46825;51.99869940;8.49421771;2022-10-26T07:25:19;11.70;99.90
1644;DHT22;46825;51.99869940;8.49421771;2022-10-26T07:26:20;11.70;99.90
1644;DHT22;46825;51.99869940;8.49421771;2022-10-26T07:27:21;11.70;99.90
1644;DHT22;46825;51.99869940;8.49421771;2022-10-26T07:29:25;11.70;99.90
1644;DHT22;46825;51.99869940;8.49421771;2022-10-26T07:30:27;11.80;99.90
1644;DHT22;46825;51.99869940;8.49421771;2022-10-26T07:33:30;11.90;99.90
1644;DHT22;46825;51.99869940;8.49421771;2022-10-26T07:34:31;11.90;99.90
1644;DHT22;46825;51.99869940;8.49421771;2022-10-26T07:35:32;11.80;99.90
1644;DHT22;46825;51.99869940;8.49421771;2022-10-26T07:36:33;11.90;99.90
1644;DHT22;46825;51.99869940;8.49421771;2022-10-26T07:39:38;11.80;99.90
1644;DHT22;46825;51.99869940;8.49421771;2022-10-26T07:42:41;11.90;99.90
1644;DHT22;46825;51.99869940;8.49421771;2022-10-26T07:43:41;12.00;99.90
1644;DHT22;46825;51.99869940;8.49421771;2022-10-26T07:44:44;12.00;99.90
1644;DHT22;46825;51.99869940;8.49421771;2022-10-26T07:45:48;12.00;99.90
1644;DHT22;46825;51.99869940;8.49421771;2022-10-26T07:47:51;12.00;99.90
1644;DHT22;46825;51.99869940;8.49421771;2022-10-26T07:48:52;12.00;99.90
1644;DHT22;46825;51.99869940;8.49421771;2022-10-26T07:49:52;12.00;99.90
1644;DHT22;46825;51.99869940;8.49421771;2022-10-26T07:51:54;12.10;99.90
1644;DHT22;46825;51.99869940;8.49421771;2022-10-26T07:53:58;12.10;99.90
1644;DHT22;46825;51.99869940;8.49421771;2022-10-26T07:55:59;12.10;99.90
1644;DHT22;46825;51.99869940;8.49421771;2022-10-26T07:57:00;12.20;99.90
1644;DHT22;46825;51.99869940;8.49421771;2022-10-26T07:58:00;12.20;99.90
1644;DHT22;46825;51.99869940;8.49421771;2022-10-26T08:01:11;12.30;99.90
1644;DHT22;46825;51.99869940;8.49421771;2022-10-26T08:02:12;12.30;99.90
1644;DHT22;46825;51.99869940;8.49421771;2022-10-26T08:03:13;12.40;99.90
1644;DHT22;46825;51.99869940;8.49421771;2022-10-26T08:04:14;12.40;99.90
1644;DHT22;46825;51.99869940;8.49421771;2022-10-26T08:05:15;12.40;99.90
1644;DHT22;46825;51.99869940;8.49421771;2022-10-26T08:06:15;12.40;99.90
1644;DHT22;46825;51.99869940;8.49421771;2022-10-26T08:07:16;12.40;99.90
1644;DHT22;46825;51.99869940;8.49421771;2022-10-26T08:08:17;12.40;99.90
1644;DHT22;46825;51.99869940;8.49421771;2022-10-26T08:09:17;12.40;99.90
1644;DHT22;46825;51.99869940;8.49421771;2022-10-26T08:10:18;12.40;99.90
1644;DHT22;46825;51.99869940;8.49421771;2022-10-26T08:11:18;12.50;99.90
1644;DHT22;46825;51.99869940;8.49421771;2022-10-26T08:12:19;12.50;99.90
1644;DHT22;46825;51.99869940;8.49421771;2022-10-26T08:13:20;12.40;99.90
1644;DHT22;46825;51.99869940;8.49421771;2022-10-26T08:15:21;12.40;99.90
1644;DHT22;46825;51.99869940;8.49421771;2022-10-26T08:16:22;12.40;99.90
1644;DHT22;46825;51.99869940;8.49421771;2022-10-26T08:19:25;12.40;99.90
1644;DHT22;46825;51.99869940;8.49421771;2022-10-26T08:20:26;12.30;99.90
1644;DHT22;46825;51.99869940;8.49421771;2022-10-26T08:22:28;12.30;99.90
1644;DHT22;46825;51.99869940;8.49421771;2022-10-26T08:23:30;12.40;99.90
1644;DHT22;46825;51.99869940;8.49421771;2022-10-26T08:24:31;12.30;99.90
1644;DHT22;46825;51.99869940;8.49421771;2022-10-26T08:26:33;12.40;99.90
1644;DHT22;46825;51.99869940;8.49421771;2022-10-26T08:27:36;12.40;99.90
1644;DHT22;46825;51.99869940;8.49421771;2022-10-26T08:28:37;12.30;99.90
1644;DHT22;46825;51.99869940;8.49421771;2022-10-26T08:33:42;12.50;99.90
1644;DHT22;46825;51.99869940;8.49421771;2022-10-26T08:35:43;12.50;99.90
1644;DHT22;46825;51.99869940;8.49421771;2022-10-26T08:36:44;12.50;99.90
1644;DHT22;46825;51.99869940;8.49421771;2022-10-26T08:37:45;12.60;99.90
1644;DHT22;46825;51.99869940;8.49421771;2022-10-26T08:39:48;12.60;99.90
1644;DHT22;46825;51.99869940;8.49421771;2022-10-26T08:41:53;12.70;99.90
1644;DHT22;46825;51.99869940;8.49421771;2022-10-26T08:45:17;12.90;99.90
1644;DHT22;46825;51.99869940;8.49421771;2022-10-26T08:46:33;13.00;99.90
1644;DHT22;46825;51.99869940;8.49421771;2022-10-26T08:47:42;13.00;99.90
1644;DHT22;46825;51.99869940;8.49421771;2022-10-26T08:48:51;13.00;99.90
1644;DHT22;46825;51.99869940;8.49421771;2022-10-26T08:51:29;12.90;99.90
1644;DHT22;46825;51.99869940;8.49421771;2022-10-26T08:53:59;13.00;99.90
1644;DHT22;46825;51.99869940;8.49421771;2022-10-26T08:55:02;13.00;99.90
1644;DHT22;46825;51.99869940;8.49421771;2022-10-26T08:59:37;12.90;99.90
1644;DHT22;46825;51.99869940;8.49421771;2022-10-26T09:01:41;13.00;99.90
1644;DHT22;46825;51.99869940;8.49421771;2022-10-26T09:02:41;13.00;99.90
1644;DHT22;46825;51.99869940;8.49421771;2022-10-26T09:03:44;13.00;99.90
1644;DHT22;46825;51.99869940;8.49421771;2022-10-26T09:09:20;13.20;99.90
1644;DHT22;46825;51.99869940;8.49421771;2022-10-26T09:18:15;13.20;99.90